Time;durP1;ratioP1;P1;durP2;ratioP2;P2;SDS_P1;SDS_P2;PMS_P1;PMS_P2;Temp;Humidity;BMP_temperature;BMP_pressure;BME280_temperature;BME280_humidity;BME280_pressure;Samples;Min_cycle;Max_cycle;Signal;HPM_P1;HPM_P2
2021/07/03 00:00:07;;;;;;;3.90;2.90;;;28.20;51.50;;;;;;4390638;32;20496;-39
2021/07/03 00:02:34;;;;;;;7.10;3.90;;;28.20;51.40;;;;;;4378236;32;20110;-38
2021/07/03 00:05:00;;;;;;;3.03;2.80;;;28.20;51.70;;;;;;4404577;32;20152;-38
2021/07/03 00:07:27;;;;;;;2.85;2.50;;;28.20;51.80;;;;;;4404637;32;20073;-38
2021/07/03 00:09:53;;;;;;;3.60;2.60;;;28.20;51.90;;;;;;4390202;32;20073;-38
2021/07/03 00:12:20;;;;;;;2.85;2.58;;;28.20;51.70;;;;;;4404215;32;20089;-37
2021/07/03 00:14:46;;;;;;;3.17;2.58;;;28.20;52.20;;;;;;4404387;32;20069;-38
2021/07/03 00:17:13;;;;;;;3.30;2.37;;;27.90;52.60;;;;;;4404442;32;20057;-37
2021/07/03 00:19:39;;;;;;;2.70;2.50;;;27.70;53.20;;;;;;4404455;32;20447;-39
2021/07/03 00:22:06;;;;;;;2.80;2.60;;;27.50;53.50;;;;;;4402770;32;20069;-38
2021/07/03 00:24:32;;;;;;;2.53;2.33;;;27.30;53.90;;;;;;4404145;32;20049;-37
2021/07/03 00:26:59;;;;;;;5.35;2.60;;;27.20;54.30;;;;;;4404065;32;20057;-37
2021/07/03 00:29:25;;;;;;;5.15;2.08;;;27.10;54.20;;;;;;4404284;32;20088;-37
2021/07/03 00:31:52;;;;;;;3.85;2.92;;;27.10;54.10;;;;;;4404094;32;20173;-37
2021/07/03 00:34:18;;;;;;;2.70;2.05;;;27.10;54.50;;;;;;4377277;32;20060;-37
2021/07/03 00:36:45;;;;;;;5.07;2.30;;;27.20;53.60;;;;;;4404163;32;20149;-37
2021/07/03 00:39:11;;;;;;;3.03;2.08;;;27.20;53.70;;;;;;4403828;32;20080;-37
2021/07/03 00:41:37;;;;;;;5.75;2.58;;;27.40;53.40;;;;;;4404051;32;20112;-37
2021/07/03 00:44:04;;;;;;;5.62;2.42;;;27.50;53.10;;;;;;4403826;32;20089;-38
2021/07/03 00:46:31;;;;;;;2.97;2.67;;;27.60;53.00;;;;;;4403288;32;20080;-38
2021/07/03 00:48:57;;;;;;;8.25;2.12;;;27.70;53.00;;;;;;4403758;32;20073;-38
2021/07/03 00:51:24;;;;;;;1.83;1.73;;;27.80;52.90;;;;;;4404237;32;20080;-38
2021/07/03 00:53:50;;;;;;;1.73;1.40;;;27.90;52.90;;;;;;4377808;32;20054;-38
2021/07/03 00:56:17;;;;;;;1.70;1.40;;;27.90;52.60;;;;;;4403749;32;20056;-38
2021/07/03 00:58:43;;;;;;;4.30;1.92;;;27.80;52.70;;;;;;4379174;32;20089;-39
2021/07/03 01:01:09;;;;;;;5.57;1.37;;;27.70;53.00;;;;;;4374676;32;20218;-39
2021/07/03 01:03:36;;;;;;;3.95;1.60;;;27.50;53.30;;;;;;4374535;32;20074;-37
2021/07/03 01:06:02;;;;;;;3.55;1.92;;;27.50;53.70;;;;;;4374411;32;20498;-39
2021/07/03 01:08:29;;;;;;;6.65;1.75;;;27.40;54.00;;;;;;4388763;32;20164;-38
2021/07/03 01:10:56;;;;;;;1.85;1.30;;;27.40;54.20;;;;;;4388512;32;20063;-38
2021/07/03 01:13:29;;;;;;;3.10;1.85;;;27.40;54.30;;;;;;4356367;32;20062;-38
2021/07/03 01:15:55;;;;;;;4.03;1.50;;;27.40;54.20;;;;;;4344597;32;20074;-38
2021/07/03 01:18:22;;;;;;;2.92;1.27;;;27.40;54.20;;;;;;4357476;32;20096;-38
2021/07/03 01:20:52;;;;;;;4.80;1.90;;;27.40;54.10;;;;;;4345106;32;20547;-38
2021/07/03 01:23:20;;;;;;;2.58;1.10;;;27.50;53.80;;;;;;4344992;32;20608;-39
2021/07/03 01:25:47;;;;;;;1.42;1.02;;;27.60;53.40;;;;;;4356530;32;20062;-38
2021/07/03 01:28:13;;;;;;;1.75;1.20;;;27.60;53.30;;;;;;4355573;32;20459;-38
2021/07/03 01:30:40;;;;;;;10.63;1.27;;;27.70;53.30;;;;;;4355889;32;20654;-38
2021/07/03 01:33:06;;;;;;;2.15;1.17;;;27.80;53.10;;;;;;4355877;32;20482;-38
2021/07/03 01:35:34;;;;;;;0.60;0.30;;;27.80;52.80;;;;;;4355720;32;20080;-39
2021/07/03 01:38:00;;;;;;;0.90;0.73;;;27.70;52.60;;;;;;4355802;32;20077;-38
2021/07/03 01:40:27;;;;;;;1.10;0.88;;;27.60;52.70;;;;;;4355914;32;20070;-36
2021/07/03 01:42:53;;;;;;;0.68;0.40;;;27.60;52.90;;;;;;4355800;32;20563;-37
2021/07/03 01:45:20;;;;;;;1.45;1.05;;;27.50;53.20;;;;;;4356088;32;20513;-38
2021/07/03 01:47:47;;;;;;;2.53;1.00;;;27.30;53.50;;;;;;4355256;32;20066;-37
2021/07/03 01:50:14;;;;;;;1.17;0.73;;;27.40;53.80;;;;;;4346689;32;20077;-37
2021/07/03 01:52:40;;;;;;;2.70;0.93;;;27.40;53.60;;;;;;4345350;32;20069;-37
2021/07/03 01:55:09;;;;;;;1.25;0.50;;;27.50;53.70;;;;;;4370260;32;20081;-37
2021/07/03 01:57:36;;;;;;;2.42;0.90;;;27.50;53.30;;;;;;4373609;32;20072;-37
2021/07/03 02:00:09;;;;;;;1.33;0.60;;;27.60;53.30;;;;;;4385342;32;20062;-37
2021/07/03 02:02:35;;;;;;;0.80;0.40;;;27.60;53.40;;;;;;4373031;32;20589;-38
2021/07/03 02:05:02;;;;;;;1.80;1.00;;;27.70;53.40;;;;;;4372485;32;20073;-37
2021/07/03 02:07:29;;;;;;;1.87;1.10;;;27.70;53.40;;;;;;4385687;32;20069;-37
2021/07/03 02:09:55;;;;;;;2.50;1.45;;;27.90;53.30;;;;;;4373106;32;20084;-38
2021/07/03 02:12:22;;;;;;;3.28;1.10;;;28.00;53.00;;;;;;4385132;32;20077;-38
2021/07/03 02:14:49;;;;;;;1.62;0.90;;;28.20;52.80;;;;;;4360520;32;20082;-38
2021/07/03 02:17:15;;;;;;;3.17;0.98;;;28.20;52.50;;;;;;4385251;32;20069;-37
2021/07/03 02:19:42;;;;;;;1.95;0.95;;;28.30;52.40;;;;;;4360151;32;20093;-38
2021/07/03 02:22:09;;;;;;;3.55;1.02;;;28.50;52.50;;;;;;4372900;32;20074;-37
2021/07/03 02:24:35;;;;;;;1.70;1.60;;;28.50;52.00;;;;;;4374204;32;20137;-37
2021/07/03 02:27:02;;;;;;;2.17;1.48;;;28.60;51.80;;;;;;4387747;32;20081;-37
2021/07/03 02:29:28;;;;;;;1.23;0.73;;;28.70;51.70;;;;;;4386440;32;20085;-36
2021/07/03 02:31:55;;;;;;;1.27;0.70;;;28.80;51.40;;;;;;4388070;32;20081;-37
2021/07/03 02:34:21;;;;;;;1.40;1.00;;;28.80;51.30;;;;;;4369789;32;20174;-36
2021/07/03 02:36:48;;;;;;;2.20;1.37;;;28.90;51.30;;;;;;4370411;32;20086;-36
2021/07/03 02:39:14;;;;;;;5.25;1.00;;;28.90;51.20;;;;;;4369917;32;20086;-37
2021/07/03 02:41:41;;;;;;;5.25;1.65;;;29.00;51.10;;;;;;4369979;32;20144;-37
2021/07/03 02:44:07;;;;;;;2.15;1.87;;;29.10;50.90;;;;;;4369917;32;20073;-37
2021/07/03 02:46:33;;;;;;;1.95;1.67;;;29.20;50.60;;;;;;4370067;32;20154;-38
2021/07/03 02:49:00;;;;;;;4.57;1.67;;;29.40;50.70;;;;;;4369687;32;20066;-37
2021/07/03 02:51:26;;;;;;;6.80;1.98;;;29.60;50.20;;;;;;4369896;32;20553;-37
2021/07/03 02:53:53;;;;;;;3.78;2.08;;;29.70;49.80;;;;;;4370256;32;20066;-37
2021/07/03 02:56:19;;;;;;;4.15;2.55;;;29.90;49.60;;;;;;4370042;32;20094;-37
2021/07/03 02:58:48;;;;;;;3.80;2.15;;;30.10;49.10;;;;;;4358879;32;20154;-37
2021/07/03 03:01:14;;;;;;;6.80;2.22;;;30.20;48.60;;;;;;4355398;32;20066;-36
2021/07/03 03:03:43;;;;;;;3.30;2.17;;;30.40;48.50;;;;;;4355088;32;20066;-37
2021/07/03 03:06:13;;;;;;;6.03;2.37;;;30.50;48.40;;;;;;4380346;32;20136;-37
2021/07/03 03:08:39;;;;;;;6.62;2.75;;;30.60;48.00;;;;;;4387072;32;20591;-36
2021/07/03 03:11:05;;;;;;;5.30;3.15;;;30.80;48.10;;;;;;4391223;32;20498;-36
2021/07/03 03:13:32;;;;;;;4.90;2.95;;;30.90;47.50;;;;;;4390990;32;20062;-36
2021/07/03 03:15:58;;;;;;;2.85;2.10;;;31.10;47.10;;;;;;4390052;32;20077;-36
2021/07/03 03:18:25;;;;;;;7.47;2.75;;;31.20;46.70;;;;;;4390164;32;20553;-36
2021/07/03 03:20:51;;;;;;;3.08;1.83;;;31.30;46.60;;;;;;4390048;32;20077;-38
2021/07/03 03:23:18;;;;;;;4.10;3.67;;;31.50;46.40;;;;;;4390006;32;20099;-37
2021/07/03 03:25:44;;;;;;;5.00;2.08;;;31.60;46.20;;;;;;4375871;32;20605;-37
2021/07/03 03:28:10;;;;;;;10.02;2.53;;;31.90;45.90;;;;;;4389754;32;20072;-37
2021/07/03 03:30:37;;;;;;;7.65;2.15;;;32.00;45.30;;;;;;4389958;32;20518;-37
2021/07/03 03:33:03;;;;;;;2.55;2.10;;;32.10;44.70;;;;;;4389604;32;20072;-37
2021/07/03 03:35:30;;;;;;;5.18;1.20;;;32.30;45.10;;;;;;4376032;32;20108;-37
2021/07/03 03:37:56;;;;;;;2.97;2.17;;;32.40;44.40;;;;;;4389758;32;20068;-37
2021/07/03 03:40:26;;;;;;;5.90;1.83;;;32.60;44.10;;;;;;4389732;32;20084;-37
2021/07/03 03:42:55;;;;;;;5.12;1.23;;;32.70;43.50;;;;;;4330205;33;20081;-36
2021/07/03 03:45:22;;;;;;;4.78;1.17;;;32.80;43.20;;;;;;4342677;33;20082;-36
2021/07/03 03:47:49;;;;;;;3.53;1.08;;;32.80;42.80;;;;;;4342316;33;20063;-36
2021/07/03 03:50:15;;;;;;;2.67;1.33;;;32.80;42.80;;;;;;4342363;33;20175;-38
2021/07/03 03:52:42;;;;;;;4.57;1.37;;;32.90;42.50;;;;;;4330074;33;20077;-37
2021/07/03 03:55:09;;;;;;;5.43;1.40;;;33.00;42.50;;;;;;4342312;33;20059;-37
2021/07/03 03:57:35;;;;;;;1.50;1.27;;;32.90;41.90;;;;;;4345878;32;20222;-36
2021/07/03 04:00:06;;;;;;;1.27;1.12;;;32.90;42.10;;;;;;4357003;32;20066;-37
2021/07/03 04:02:32;;;;;;;2.03;1.12;;;33.00;41.90;;;;;;4356857;32;20066;-36
2021/07/03 04:04:59;;;;;;;5.22;1.00;;;33.10;41.70;;;;;;4356709;32;20564;-37
2021/07/03 04:07:25;;;;;;;3.12;1.80;;;33.30;41.70;;;;;;4356779;32;20155;-37
2021/07/03 04:09:52;;;;;;;1.65;1.48;;;33.40;41.90;;;;;;4356756;32;20182;-37
2021/07/03 04:12:18;;;;;;;3.33;1.70;;;33.50;42.10;;;;;;4356393;32;20167;-36
2021/07/03 04:14:45;;;;;;;3.97;1.50;;;33.60;41.80;;;;;;4352394;32;20089;-36
2021/07/03 04:17:11;;;;;;;4.82;1.40;;;33.70;41.80;;;;;;4356658;32;20074;-36
2021/07/03 04:19:38;;;;;;;3.12;1.30;;;33.90;41.50;;;;;;4356667;32;20063;-36
2021/07/03 04:22:04;;;;;;;3.50;1.15;;;34.20;41.20;;;;;;4356650;32;20533;-37
2021/07/03 04:24:31;;;;;;;3.83;2.37;;;34.30;40.80;;;;;;4356264;32;20057;-38
2021/07/03 04:26:57;;;;;;;2.45;1.00;;;34.30;40.50;;;;;;4356590;32;20188;-38
2021/07/03 04:29:23;;;;;;;4.72;1.00;;;34.30;40.70;;;;;;4356023;32;20334;-37
2021/07/03 04:31:50;;;;;;;4.40;1.37;;;34.20;40.90;;;;;;4356543;32;20057;-37
2021/07/03 04:34:16;;;;;;;2.15;0.95;;;34.00;41.10;;;;;;4343789;32;20062;-37
2021/07/03 04:36:43;;;;;;;3.12;1.10;;;33.70;41.10;;;;;;4356121;32;20548;-37
2021/07/03 04:39:09;;;;;;;1.45;1.35;;;33.40;41.80;;;;;;4356028;32;20186;-36
2021/07/03 04:41:37;;;;;;;6.15;1.30;;;33.10;42.70;;;;;;4326471;33;20136;-37
2021/07/03 04:44:06;;;;;;;5.40;1.35;;;32.90;43.30;;;;;;4311785;33;20071;-37
2021/07/03 04:46:33;;;;;;;5.32;1.35;;;32.60;43.60;;;;;;4336525;33;20213;-36
2021/07/03 04:49:00;;;;;;;1.40;1.30;;;32.40;44.10;;;;;;4329351;33;20071;-39
2021/07/03 04:51:27;;;;;;;4.30;1.45;;;32.20;44.10;;;;;;4328951;33;20089;-39
2021/07/03 04:53:53;;;;;;;1.35;1.20;;;32.00;44.30;;;;;;4341672;33;20158;-38
2021/07/03 04:56:20;;;;;;;3.58;1.10;;;31.90;44.80;;;;;;4341378;33;20078;-38
2021/07/03 04:58:46;;;;;;;1.23;1.12;;;32.00;45.00;;;;;;4341045;32;20067;-38
2021/07/03 05:01:13;;;;;;;1.27;1.17;;;31.90;44.80;;;;;;4328922;33;20189;-37
2021/07/03 05:03:39;;;;;;;1.70;1.17;;;31.70;44.70;;;;;;4329044;33;20062;-36
2021/07/03 05:06:06;;;;;;;1.92;1.45;;;31.50;44.40;;;;;;4341421;33;20075;-38
2021/07/03 05:08:32;;;;;;;1.90;1.00;;;31.40;45.10;;;;;;4329172;33;20067;-37
2021/07/03 05:10:59;;;;;;;2.35;0.80;;;31.40;45.50;;;;;;4316656;33;20077;-37
2021/07/03 05:13:25;;;;;;;2.10;0.85;;;31.50;45.60;;;;;;4365949;32;20077;-37
2021/07/03 05:15:52;;;;;;;1.85;1.00;;;31.80;44.20;;;;;;4385196;32;20066;-36
2021/07/03 05:18:19;;;;;;;1.50;0.90;;;31.90;44.20;;;;;;4388205;32;20065;-38
2021/07/03 05:20:45;;;;;;;4.35;1.00;;;32.10;43.90;;;;;;4388355;32;20109;-38
2021/07/03 05:23:12;;;;;;;1.65;0.80;;;32.50;44.10;;;;;;4388258;32;20049;-36
2021/07/03 05:25:41;;;;;;;1.15;0.80;;;32.80;42.90;;;;;;4374316;32;20065;-37
2021/07/03 05:28:09;;;;;;;2.58;0.90;;;33.00;42.50;;;;;;4374631;32;20569;-36
2021/07/03 05:30:36;;;;;;;3.50;0.75;;;33.10;42.50;;;;;;4388124;32;20064;-38
2021/07/03 05:33:03;;;;;;;4.70;1.10;;;33.10;42.40;;;;;;4387876;32;20064;-37
2021/07/03 05:35:29;;;;;;;1.10;0.90;;;33.00;42.70;;;;;;4388175;32;20503;-38
2021/07/03 05:37:56;;;;;;;1.40;0.90;;;32.90;42.60;;;;;;4388051;32;20145;-37
2021/07/03 05:40:22;;;;;;;1.55;1.00;;;32.90;42.30;;;;;;4373857;32;20069;-39
2021/07/03 05:42:49;;;;;;;0.98;0.80;;;32.80;42.40;;;;;;4388181;32;20065;-38
2021/07/03 05:45:16;;;;;;;0.90;0.70;;;32.90;42.30;;;;;;4373731;32;20766;-38
2021/07/03 05:47:51;;;;;;;1.25;0.90;;;33.10;42.10;;;;;;4388306;32;20062;-36
2021/07/03 05:50:23;;;;;;;1.33;0.80;;;33.30;42.20;;;;;;4374032;32;20073;-38
2021/07/03 05:52:50;;;;;;;1.37;0.90;;;33.40;42.10;;;;;;4387925;32;20501;-38
2021/07/03 05:55:16;;;;;;;2.30;0.90;;;33.70;41.70;;;;;;4354922;32;20082;-37
2021/07/03 05:57:43;;;;;;;1.58;1.10;;;33.80;41.50;;;;;;4347220;32;20073;-38
2021/07/03 06:00:13;;;;;;;1.42;0.85;;;33.90;41.50;;;;;;4357837;32;20077;-37
2021/07/03 06:02:40;;;;;;;2.25;0.77;;;33.90;40.80;;;;;;4358072;32;20495;-36
2021/07/03 06:05:08;;;;;;;1.02;0.77;;;34.00;40.50;;;;;;4357890;32;20173;-38
2021/07/03 06:07:34;;;;;;;1.33;1.00;;;34.00;40.30;;;;;;4370074;32;20549;-38
2021/07/03 06:10:01;;;;;;;3.03;1.00;;;34.00;40.30;;;;;;4370504;32;20100;-37
2021/07/03 06:12:27;;;;;;;3.03;0.98;;;34.10;40.10;;;;;;4369997;32;20514;-38
2021/07/03 06:14:54;;;;;;;1.25;0.85;;;34.20;40.20;;;;;;4370223;32;20086;-38
2021/07/03 06:17:20;;;;;;;0.88;0.73;;;34.30;40.80;;;;;;4357759;32;20221;-38
2021/07/03 06:19:46;;;;;;;1.75;0.80;;;34.30;40.20;;;;;;4369880;32;20548;-38
2021/07/03 06:22:14;;;;;;;0.90;0.90;;;34.30;39.90;;;;;;4369922;32;20066;-38
2021/07/03 06:24:45;;;;;;;0.80;0.80;;;34.30;39.40;;;;;;4355024;32;20097;-37
2021/07/03 06:27:11;;;;;;;4.80;1.00;;;34.10;39.90;;;;;;4381279;32;20164;-37
2021/07/03 06:29:38;;;;;;;0.88;0.82;;;34.00;40.00;;;;;;4373117;32;20141;-39
2021/07/03 06:32:05;;;;;;;1.12;0.80;;;33.90;40.60;;;;;;4360217;32;20070;-39
2021/07/03 06:34:34;;;;;;;4.85;4.45;;;33.90;41.00;;;;;;4384936;32;20150;-38
2021/07/03 06:37:01;;;;;;;2.70;2.08;;;33.80;40.90;;;;;;4385380;32;20514;-40
2021/07/03 06:39:27;;;;;;;1.98;1.50;;;33.80;40.90;;;;;;4372425;32;20149;-40
2021/07/03 06:41:54;;;;;;;1.77;0.70;;;33.90;41.00;;;;;;4384974;32;20104;-39
2021/07/03 06:44:20;;;;;;;2.25;0.80;;;34.10;40.50;;;;;;4386944;32;20066;-39
2021/07/03 06:46:47;;;;;;;2.58;1.05;;;34.30;40.10;;;;;;4375569;32;20136;-39
2021/07/03 06:49:15;;;;;;;1.08;0.88;;;34.40;39.70;;;;;;4375412;32;20560;-38
2021/07/03 06:51:42;;;;;;;2.92;0.95;;;34.70;39.60;;;;;;4362963;32;20073;-39
2021/07/03 06:54:08;;;;;;;1.00;0.50;;;35.00;39.40;;;;;;4388114;32;20076;-39
2021/07/03 06:56:35;;;;;;;0.40;0.40;;;35.20;37.70;;;;;;4387934;32;20070;-38
2021/07/03 06:59:01;;;;;;;0.85;0.52;;;35.30;37.10;;;;;;4387879;32;20278;-39
2021/07/03 07:01:28;;;;;;;1.00;0.50;;;35.40;36.90;;;;;;4391734;32;20509;-38
2021/07/03 07:03:54;;;;;;;4.30;0.50;;;35.40;36.50;;;;;;4405353;32;20060;-37
2021/07/03 07:06:21;;;;;;;1.37;0.50;;;35.40;35.90;;;;;;4405435;32;20069;-38
2021/07/03 07:08:47;;;;;;;2.15;0.50;;;35.30;36.20;;;;;;4404897;32;20053;-38
2021/07/03 07:11:14;;;;;;;0.50;0.50;;;35.30;36.40;;;;;;4375396;32;20062;-38
2021/07/03 07:13:40;;;;;;;0.90;0.60;;;35.40;36.60;;;;;;4389867;32;20502;-38
2021/07/03 07:16:07;;;;;;;1.98;0.50;;;35.40;36.50;;;;;;4390339;32;20226;-37
2021/07/03 07:18:33;;;;;;;2.70;0.50;;;35.60;36.20;;;;;;4389782;32;20109;-39
2021/07/03 07:21:00;;;;;;;0.90;0.50;;;35.60;34.20;;;;;;4389944;32;20549;-38
2021/07/03 07:23:26;;;;;;;1.10;0.50;;;35.60;32.50;;;;;;4388112;32;20599;-40
2021/07/03 07:25:53;;;;;;;0.80;0.47;;;35.50;31.90;;;;;;4390051;32;20080;-37
2021/07/03 07:28:19;;;;;;;1.15;0.40;;;35.50;32.30;;;;;;4357273;32;20070;-39
2021/07/03 07:30:46;;;;;;;3.65;0.68;;;35.60;31.80;;;;;;4345156;32;20172;-37
2021/07/03 07:33:12;;;;;;;0.55;0.40;;;35.90;30.90;;;;;;4345278;32;20063;-38
2021/07/03 07:35:39;;;;;;;3.25;0.40;;;36.10;30.60;;;;;;4357048;32;20148;-37
2021/07/03 07:38:05;;;;;;;0.50;0.35;;;36.10;30.60;;;;;;4357250;32;20093;-38
2021/07/03 07:40:32;;;;;;;1.85;0.50;;;36.10;30.30;;;;;;4357239;32;20164;-39
2021/07/03 07:42:58;;;;;;;0.80;0.45;;;36.10;30.60;;;;;;4357139;32;20073;-37
2021/07/03 07:45:25;;;;;;;0.65;0.45;;;36.10;30.80;;;;;;4357157;32;20082;-39
2021/07/03 07:47:51;;;;;;;1.20;0.40;;;36.20;30.00;;;;;;4357155;32;20543;-38
2021/07/03 07:50:18;;;;;;;0.57;0.40;;;36.20;31.30;;;;;;4357071;32;20074;-37
2021/07/03 07:52:44;;;;;;;3.15;0.70;;;36.30;31.80;;;;;;4357287;32;20114;-39
2021/07/03 07:55:11;;;;;;;4.12;0.45;;;36.50;31.60;;;;;;4356564;32;20538;-39
2021/07/03 07:57:38;;;;;;;1.67;0.60;;;36.70;30.50;;;;;;4357289;32;20585;-39
2021/07/03 08:00:06;;;;;;;0.50;0.47;;;36.60;31.30;;;;;;4383579;32;20495;-40
2021/07/03 08:02:32;;;;;;;2.72;0.50;;;36.60;30.60;;;;;;4401105;32;20074;-39
2021/07/03 08:04:59;;;;;;;1.92;0.82;;;36.50;30.30;;;;;;4389477;32;20078;-39
2021/07/03 08:07:25;;;;;;;1.17;0.50;;;36.60;30.30;;;;;;4389337;32;20066;-38
2021/07/03 08:09:51;;;;;;;0.73;0.43;;;36.60;30.10;;;;;;4388623;32;20488;-39
2021/07/03 08:12:18;;;;;;;2.65;0.50;;;36.60;29.80;;;;;;4401065;32;20481;-39
2021/07/03 08:14:44;;;;;;;0.60;0.40;;;36.70;29.90;;;;;;4404649;32;20153;-40
2021/07/03 08:17:11;;;;;;;1.10;0.50;;;36.80;30.80;;;;;;4404109;32;20146;-39
2021/07/03 08:19:38;;;;;;;1.95;0.50;;;37.10;30.70;;;;;;4390209;32;20532;-39
2021/07/03 08:22:04;;;;;;;0.73;0.40;;;37.30;29.80;;;;;;4403654;32;20460;-39
2021/07/03 08:24:31;;;;;;;1.02;0.32;;;37.30;29.90;;;;;;4389591;32;20141;-39
2021/07/03 08:26:58;;;;;;;0.40;0.40;;;37.30;32.50;;;;;;4403853;32;20180;-39
2021/07/03 08:29:25;;;;;;;0.57;0.40;;;37.30;31.70;;;;;;4403828;32;20476;-39
2021/07/03 08:31:51;;;;;;;2.17;0.50;;;37.40;31.70;;;;;;4403811;32;20072;-38
2021/07/03 08:34:18;;;;;;;0.70;0.47;;;37.30;31.80;;;;;;4389527;32;20062;-38
2021/07/03 08:36:44;;;;;;;0.40;0.40;;;37.10;31.00;;;;;;4404018;32;20157;-38
2021/07/03 08:39:11;;;;;;;3.10;0.50;;;37.00;31.50;;;;;;4403931;32;20093;-39
2021/07/03 08:41:38;;;;;;;1.20;0.50;;;36.90;31.60;;;;;;4403666;32;20069;-38
2021/07/03 08:44:04;;;;;;;3.10;0.40;;;36.70;31.70;;;;;;4389852;32;20069;-38
2021/07/03 08:46:31;;;;;;;0.60;0.60;;;36.50;32.10;;;;;;4386294;32;20082;-38
2021/07/03 08:48:58;;;;;;;2.65;0.40;;;36.30;32.50;;;;;;4385979;32;20157;-38
2021/07/03 08:51:25;;;;;;;0.52;0.43;;;36.10;32.90;;;;;;4385488;32;20069;-38
2021/07/03 08:53:51;;;;;;;2.12;0.60;;;35.80;33.40;;;;;;4373250;32;20085;-39
2021/07/03 08:56:19;;;;;;;0.60;0.45;;;35.70;33.90;;;;;;4385934;32;20675;-40
2021/07/03 08:58:46;;;;;;;1.75;0.50;;;35.60;33.40;;;;;;4375223;32;20178;-39
2021/07/03 09:01:13;;;;;;;0.40;0.40;;;35.70;33.90;;;;;;4370982;32;20194;-40
2021/07/03 09:03:49;;;;;;;0.70;0.50;;;35.80;33.80;;;;;;4370807;32;20206;-39
2021/07/03 09:06:15;;;;;;;3.75;0.50;;;36.00;34.10;;;;;;4347831;32;20062;-39
2021/07/03 09:08:52;;;;;;;0.73;0.68;;;36.10;33.70;;;;;;4358630;32;20164;-40
2021/07/03 09:11:18;;;;;;;1.60;0.40;;;36.20;34.00;;;;;;4370647;32;20070;-38
2021/07/03 09:13:45;;;;;;;2.72;0.40;;;36.10;33.80;;;;;;4358910;32;20110;-38
2021/07/03 09:16:13;;;;;;;1.05;0.55;;;36.10;33.50;;;;;;4370888;32;20070;-39
2021/07/03 09:18:40;;;;;;;0.80;0.55;;;36.10;34.20;;;;;;4358180;32;20070;-39
2021/07/03 09:21:07;;;;;;;1.58;0.60;;;36.10;34.10;;;;;;4371072;32;20082;-39
2021/07/03 09:23:39;;;;;;;0.60;0.50;;;36.10;33.80;;;;;;4376446;32;20504;-39
2021/07/03 09:26:10;;;;;;;0.77;0.50;;;36.00;34.10;;;;;;4387942;32;20065;-39
2021/07/03 09:28:43;;;;;;;0.50;0.40;;;36.10;34.20;;;;;;4374124;32;20181;-40
2021/07/03 09:31:15;;;;;;;0.68;0.60;;;36.20;33.80;;;;;;4387811;32;20093;-38
2021/07/03 09:33:49;;;;;;;2.00;0.60;;;36.10;33.10;;;;;;4374609;32;20089;-39
2021/07/03 09:36:30;;;;;;;0.50;0.50;;;36.10;33.00;;;;;;4375115;32;20505;-40
2021/07/03 09:38:58;;;;;;;5.30;0.60;;;36.10;33.90;;;;;;4388679;32;20519;-38
2021/07/03 09:41:33;;;;;;;3.85;1.05;;;36.00;33.70;;;;;;4388392;32;20066;-39
2021/07/03 09:44:02;;;;;;;2.78;0.60;;;36.10;33.50;;;;;;4388271;32;20147;-39
2021/07/03 09:47:01;;;;;;;3.58;0.70;;;36.10;33.50;;;;;;4374062;32;20065;-39
2021/07/03 09:49:28;;;;;;;1.42;0.50;;;35.80;33.70;;;;;;4340178;33;20077;-39
2021/07/03 09:51:57;;;;;;;0.60;0.40;;;35.80;34.40;;;;;;4340604;33;20078;-39
2021/07/03 09:54:25;;;;;;;1.40;0.40;;;36.00;34.60;;;;;;4340793;33;20094;-38
2021/07/03 09:56:58;;;;;;;1.00;0.60;;;36.10;33.80;;;;;;4340733;33;20094;-39
2021/07/03 09:59:35;;;;;;;1.93;0.50;;;36.10;34.00;;;;;;4314044;33;20058;-39
2021/07/03 10:02:03;;;;;;;2.12;0.50;;;36.00;34.00;;;;;;4326137;33;20149;-39
2021/07/03 10:04:29;;;;;;;1.98;0.50;;;35.80;34.00;;;;;;4325289;33;20263;-39
2021/07/03 10:07:10;;;;;;;2.25;0.60;;;35.80;33.90;;;;;;4326035;33;20052;-39
2021/07/03 10:09:46;;;;;;;0.52;0.50;;;35.80;33.90;;;;;;4325863;33;20086;-38
2021/07/03 10:12:22;;;;;;;0.60;0.60;;;35.70;33.00;;;;;;4311072;33;20171;-39
2021/07/03 10:14:49;;;;;;;1.12;0.82;;;35.70;33.30;;;;;;4311164;33;20181;-39
2021/07/03 10:17:26;;;;;;;0.75;0.60;;;35.80;33.00;;;;;;4299880;33;20076;-40
2021/07/03 10:19:53;;;;;;;0.60;0.55;;;36.00;33.30;;;;;;4314711;33;20064;-38
2021/07/03 10:22:25;;;;;;;1.25;0.70;;;36.00;33.10;;;;;;4314361;33;20071;-39
2021/07/03 10:25:15;;;;;;;1.55;0.60;;;36.00;33.30;;;;;;4333882;32;20541;-39
2021/07/03 10:27:58;;;;;;;0.98;0.60;;;35.80;33.30;;;;;;4360484;32;20526;-39
2021/07/03 10:30:29;;;;;;;3.80;1.50;;;35.80;33.90;;;;;;4357785;32;20176;-37
2021/07/03 10:33:06;;;;;;;9.18;0.60;;;35.70;33.70;;;;;;4358176;32;20637;-40
2021/07/03 10:35:51;;;;;;;3.25;0.68;;;35.70;33.70;;;;;;4357998;32;20062;-38
2021/07/03 10:38:22;;;;;;;1.10;0.70;;;35.80;33.50;;;;;;4357744;32;20151;-39
2021/07/03 10:40:51;;;;;;;3.72;0.70;;;35.80;33.40;;;;;;4357893;32;20068;-38
2021/07/03 10:43:18;;;;;;;0.62;0.60;;;35.80;33.70;;;;;;4357821;32;20077;-39
2021/07/03 10:45:49;;;;;;;2.78;0.80;;;36.10;33.40;;;;;;4358151;32;20151;-39
2021/07/03 10:48:18;;;;;;;2.35;1.00;;;36.30;32.60;;;;;;4358013;32;20098;-39
2021/07/03 10:50:45;;;;;;;2.87;0.77;;;36.40;32.50;;;;;;4358248;32;20128;-39
2021/07/03 10:53:29;;;;;;;3.90;0.77;;;36.30;32.00;;;;;;4345609;32;20077;-41
2021/07/03 10:56:07;;;;;;;;;;;36.20;33.00;;;;;;4358707;32;20085;-39
2021/07/03 10:58:39;;;;;;;2.95;0.80;;;36.20;33.30;;;;;;4367609;32;20016;-39
2021/07/03 11:01:13;;;;;;;1.25;0.60;;;36.20;33.50;;;;;;4375952;32;20167;-39
2021/07/03 11:03:50;;;;;;;0.62;0.50;;;36.10;33.70;;;;;;4375190;32;20074;-39
2021/07/03 11:06:22;;;;;;;2.22;0.60;;;36.10;34.70;;;;;;4374987;32;20502;-39
2021/07/03 11:08:49;;;;;;;1.37;0.70;;;35.90;33.60;;;;;;4374883;32;20058;-39
2021/07/03 11:11:17;;;;;;;1.17;0.60;;;35.80;33.80;;;;;;4379404;32;20136;-39
2021/07/03 11:13:45;;;;;;;1.17;0.70;;;35.70;34.20;;;;;;4404928;32;20071;-39
2021/07/03 11:16:14;;;;;;;1.85;0.62;;;35.60;34.70;;;;;;4405111;32;20075;-39
2021/07/03 11:18:45;;;;;;;1.80;0.77;;;35.60;34.90;;;;;;4391190;32;20099;-40
2021/07/03 11:21:15;;;;;;;0.80;0.70;;;35.60;34.10;;;;;;4405217;32;20134;-40
2021/07/03 11:23:41;;;;;;;1.92;0.80;;;35.50;33.50;;;;;;4404938;32;20080;-39
2021/07/03 11:26:13;;;;;;;5.90;0.80;;;35.40;33.90;;;;;;4404967;32;20134;-41
2021/07/03 11:28:40;;;;;;;0.90;0.60;;;35.40;33.90;;;;;;4404423;32;20061;-38
2021/07/03 11:31:07;;;;;;;3.70;0.82;;;35.50;33.50;;;;;;4405211;32;20521;-39
2021/07/03 11:33:35;;;;;;;2.87;0.60;;;35.60;33.30;;;;;;4405111;32;20073;-39
2021/07/03 11:36:05;;;;;;;1.05;0.68;;;35.60;33.50;;;;;;4404832;32;20133;-40
2021/07/03 11:38:32;;;;;;;3.22;0.80;;;35.60;33.80;;;;;;4404460;32;20565;-40
2021/07/03 11:41:01;;;;;;;1.30;0.93;;;35.60;33.70;;;;;;4390931;32;20446;-38
2021/07/03 11:43:29;;;;;;;1.15;0.60;;;35.80;34.10;;;;;;4390996;32;20068;-38
2021/07/03 11:45:56;;;;;;;2.15;0.60;;;35.80;34.10;;;;;;4405038;32;20073;-39
2021/07/03 11:48:25;;;;;;;6.65;0.77;;;35.80;34.10;;;;;;4405038;32;20568;-39
2021/07/03 11:51:02;;;;;;;1.30;0.75;;;35.80;34.40;;;;;;4404815;32;20072;-40
2021/07/03 11:53:31;;;;;;;0.80;0.70;;;35.80;34.60;;;;;;4404616;32;20069;-39
2021/07/03 11:56:00;;;;;;;1.17;0.70;;;35.70;34.50;;;;;;4405024;32;20080;-39
2021/07/03 11:58:34;;;;;;;1.20;0.70;;;35.60;34.70;;;;;;4381492;32;20062;-39
2021/07/03 12:01:08;;;;;;;1.75;0.70;;;35.40;34.50;;;;;;4375707;32;20065;-38
2021/07/03 12:03:38;;;;;;;0.70;0.70;;;35.30;35.00;;;;;;4375360;32;20530;-39
2021/07/03 12:06:07;;;;;;;1.52;0.70;;;35.20;35.20;;;;;;4375390;32;20061;-39
2021/07/03 12:08:38;;;;;;;4.03;1.10;;;35.30;34.90;;;;;;4389515;32;20065;-37
2021/07/03 12:11:07;;;;;;;6.47;0.88;;;35.20;35.30;;;;;;4389117;32;20481;-39
2021/07/03 12:13:51;;;;;;;1.70;0.70;;;35.20;34.70;;;;;;4375165;32;20101;-40
2021/07/03 12:16:23;;;;;;;2.00;0.65;;;35.20;34.30;;;;;;4388801;32;20069;-38
2021/07/03 12:18:52;;;;;;;2.37;0.60;;;35.10;34.20;;;;;;4389152;32;20057;-38
2021/07/03 12:21:24;;;;;;;0.80;0.60;;;35.10;34.00;;;;;;4375351;32;20058;-38
2021/07/03 12:23:56;;;;;;;3.58;0.70;;;35.20;34.10;;;;;;4388907;32;20062;-38
2021/07/03 12:26:37;;;;;;;1.27;0.80;;;35.40;35.60;;;;;;4389273;32;20068;-37
2021/07/03 12:29:09;;;;;;;2.78;0.80;;;35.40;36.00;;;;;;4355899;32;20089;-37
2021/07/03 12:31:46;;;;;;;1.87;0.80;;;35.40;36.00;;;;;;4344376;32;20070;-38
2021/07/03 12:34:27;;;;;;;5.60;1.35;;;35.50;36.00;;;;;;4356345;32;20650;-38
2021/07/03 12:37:05;;;;;;;0.90;0.70;;;35.60;35.80;;;;;;4356834;32;20277;-39
2021/07/03 12:39:31;;;;;;;1.90;0.70;;;35.80;35.70;;;;;;4356739;32;20069;-39
2021/07/03 12:42:04;;;;;;;2.65;0.80;;;36.00;35.20;;;;;;4344230;32;20070;-38
2021/07/03 12:44:49;;;;;;;2.60;0.63;;;36.10;34.90;;;;;;4356534;32;20081;-38
2021/07/03 12:47:17;;;;;;;1.05;0.70;;;36.10;34.00;;;;;;4356484;32;20167;-38
2021/07/03 12:49:48;;;;;;;0.62;0.60;;;36.20;33.90;;;;;;4356242;32;20090;-38
2021/07/03 12:52:15;;;;;;;1.33;0.60;;;36.20;33.70;;;;;;4356282;32;20058;-38